createdAt,value
2023-01-04T00:02:28.825Z,71.35
2023-01-04T00:05:14.931Z,82.70
2023-01-04T00:08:00.504Z,88.50
2023-01-04T00:10:45.994Z,86.32
2023-01-04T00:13:34.249Z,81.05
2023-01-04T00:16:22.654Z,80.85
2023-01-04T00:19:11.652Z,74.28
2023-01-04T00:21:57.459Z,69.25
2023-01-04T00:24:43.612Z,66.43
2023-01-04T00:27:29.370Z,69.20
2023-01-04T00:30:15.260Z,81.53
2023-01-04T00:33:01.363Z,93.20
2023-01-04T00:35:47.035Z,99.57
2023-01-04T00:38:34.374Z,91.22
2023-01-04T00:41:49.128Z,87.75
2023-01-04T00:44:27.221Z,86.82
2023-01-04T00:47:13.067Z,88.53
2023-01-04T00:49:58.825Z,82.72
2023-01-04T00:52:44.373Z,90.10
2023-01-04T00:55:30.996Z,117.43
2023-01-04T00:58:17.061Z,120.20
2023-01-04T01:01:07.277Z,110.03
2023-01-04T01:03:57.810Z,104.68
2023-01-04T01:06:43.954Z,101.63
2023-01-04T01:09:29.721Z,84.25
2023-01-04T01:12:15.301Z,73.10
2023-01-04T01:15:01.238Z,81.63
2023-01-04T01:17:47.312Z,79.15
2023-01-04T01:20:33.010Z,83.60
2023-01-04T01:23:18.634Z,78.63
2023-01-04T01:26:07.046Z,71.03
2023-01-04T01:28:53.220Z,65.07
2023-01-04T01:31:41.092Z,54.35
2023-01-04T01:34:26.795Z,49.50
2023-01-04T01:37:12.443Z,46.35
2023-01-04T01:39:58.275Z,45.40
2023-01-04T01:42:43.932Z,44.28
2023-01-04T01:45:34.088Z,41.55
2023-01-04T01:48:27.675Z,39.63
2023-01-04T01:51:15.621Z,41.30
2023-01-04T01:54:26.956Z,37.75
2023-01-04T01:57:17.160Z,38.03
2023-01-04T02:00:08.337Z,37.50
2023-01-04T02:03:22.348Z,35.53
2023-01-04T02:06:14.498Z,36.28
2023-01-04T02:09:02.415Z,36.83
2023-01-04T02:11:48.047Z,37.08
2023-01-04T02:14:33.885Z,38.42
2023-01-04T02:17:31.815Z,38.67
2023-01-04T02:20:47.872Z,36.28
2023-01-04T02:24:17.655Z,33.65
2023-01-04T02:27:05.984Z,33.88
2023-01-04T02:29:57.733Z,33.05
2023-01-04T02:33:06.599Z,34.60
2023-01-04T02:36:10.585Z,33.00
2023-01-04T02:39:09.929Z,32.65
2023-01-04T02:42:14.158Z,33.83
2023-01-04T02:45:04.550Z,35.72
2023-01-04T02:48:10.207Z,36.05
2023-01-04T02:50:58.015Z,33.40
2023-01-04T02:53:43.640Z,38.53
2023-01-04T02:56:38.155Z,38.58
2023-01-04T02:59:43.164Z,39.30
2023-01-04T03:03:14.766Z,39.65
2023-01-04T03:06:16.931Z,36.42
2023-01-04T03:09:10.270Z,35.40
2023-01-04T03:12:28.609Z,33.85
2023-01-04T03:15:17.666Z,36.22
2023-01-04T03:18:26.272Z,35.42
2023-01-04T03:21:13.831Z,35.00
2023-01-04T03:24:19.867Z,31.65
2023-01-04T03:27:29.171Z,34.90
2023-01-04T03:30:35.543Z,31.65
2023-01-04T03:33:41.040Z,30.75
2023-01-04T03:36:55.005Z,35.25
2023-01-04T03:40:10.099Z,37.13
2023-01-04T03:43:25.235Z,38.55
2023-01-04T03:46:55.005Z,35.03
2023-01-04T03:50:00.238Z,40.17
2023-01-04T03:52:46.717Z,44.50
2023-01-04T03:55:34.213Z,45.17
2023-01-04T03:58:20.664Z,45.40
2023-01-04T04:01:06.707Z,44.58
2023-01-04T04:04:11.862Z,43.38
2023-01-04T04:07:19.387Z,42.60
2023-01-04T04:10:05.374Z,42.15
2023-01-04T04:12:52.385Z,40.67
2023-01-04T04:15:38.335Z,41.30
2023-01-04T04:18:24.012Z,36.90
2023-01-04T04:21:09.552Z,36.67
2023-01-04T04:23:56.355Z,34.97
2023-01-04T04:26:42.140Z,39.15
2023-01-04T04:29:27.904Z,41.83
2023-01-04T04:32:15.638Z,41.20
2023-01-04T04:35:01.487Z,41.30
2023-01-04T04:37:47.390Z,38.00
2023-01-04T04:40:51.863Z,45.35
2023-01-04T04:43:37.793Z,39.72
2023-01-04T04:46:23.571Z,35.50
2023-01-04T04:49:09.878Z,35.08
2023-01-04T04:51:55.704Z,30.73
2023-01-04T04:54:41.350Z,30.92
2023-01-04T04:57:26.888Z,28.70
2023-01-04T05:00:13.517Z,32.80
2023-01-04T05:03:00.303Z,34.50
2023-01-04T05:05:46.293Z,38.60
2023-01-04T05:08:32.028Z,37.08
2023-01-04T05:11:38.194Z,37.40
2023-01-04T05:14:24.030Z,38.55
2023-01-04T05:17:09.767Z,42.60
2023-01-04T05:19:55.487Z,40.67
2023-01-04T05:22:41.147Z,40.55
2023-01-04T05:25:27.156Z,39.53
2023-01-04T05:28:13.095Z,42.00
2023-01-04T05:30:58.968Z,40.95
2023-01-04T05:33:46.840Z,41.28
2023-01-04T05:36:32.425Z,42.53
2023-01-04T05:39:18.151Z,41.33
2023-01-04T05:42:23.540Z,44.92
2023-01-04T05:45:09.783Z,43.08
2023-01-04T05:47:55.698Z,43.70
2023-01-04T05:50:41.845Z,49.92
2023-01-04T05:53:32.889Z,48.63
2023-01-04T05:56:18.894Z,42.03
2023-01-04T05:59:04.643Z,41.58
2023-01-04T06:01:50.378Z,39.67
2023-01-04T06:04:36.817Z,40.33
2023-01-04T06:07:23.459Z,40.50
2023-01-04T06:10:11.442Z,40.80
2023-01-04T06:12:57.388Z,41.03
2023-01-04T06:15:44.945Z,39.22
2023-01-04T06:18:30.750Z,42.08
2023-01-04T06:21:16.416Z,41.45
2023-01-04T06:24:02.346Z,41.60
2023-01-04T06:26:48.145Z,42.15
2023-01-04T06:29:33.893Z,41.33
2023-01-04T06:32:19.644Z,39.17
2023-01-04T06:35:05.710Z,41.45
2023-01-04T06:37:51.444Z,40.33
2023-01-04T06:40:37.165Z,41.83
2023-01-04T06:43:22.973Z,45.13
2023-01-04T06:46:08.751Z,44.08
2023-01-04T06:48:54.421Z,47.17
2023-01-04T06:51:40.203Z,42.33
2023-01-04T06:54:26.172Z,42.55
2023-01-04T06:57:12.573Z,41.00
2023-01-04T07:00:01.920Z,41.80
2023-01-04T07:03:15.512Z,38.30
2023-01-04T07:05:54.036Z,34.90
2023-01-04T07:08:40.943Z,33.42
2023-01-04T07:11:27.275Z,32.75
2023-01-04T07:14:13.006Z,34.50
2023-01-04T07:16:59.051Z,37.13
2023-01-04T07:19:44.654Z,37.22
2023-01-04T07:22:30.651Z,34.47
2023-01-04T07:25:16.800Z,31.73
2023-01-04T07:28:02.661Z,32.97
2023-01-04T07:30:49.073Z,33.40
2023-01-04T07:33:38.556Z,31.88
2023-01-04T07:36:24.557Z,31.25
2023-01-04T07:39:11.923Z,30.45
2023-01-04T07:42:01.147Z,30.90
2023-01-04T07:44:53.222Z,30.17
2023-01-04T07:47:40.189Z,30.55
2023-01-04T07:50:25.983Z,32.97
2023-01-04T07:53:13.005Z,30.17
2023-01-04T07:56:00.882Z,30.65
2023-01-04T07:58:46.686Z,29.60
2023-01-04T08:01:35.269Z,30.92
2023-01-04T08:04:23.465Z,42.30
2023-01-04T08:07:09.701Z,42.53
2023-01-04T08:09:55.443Z,39.13
2023-01-04T08:12:41.267Z,40.58
2023-01-04T08:15:27.408Z,42.78
2023-01-04T08:18:13.329Z,41.95
2023-01-04T08:21:17.375Z,42.55
2023-01-04T08:24:04.150Z,47.15
2023-01-04T08:26:49.874Z,45.15
2023-01-04T08:29:35.959Z,40.70
2023-01-04T08:32:23.713Z,37.70
2023-01-04T08:35:09.782Z,36.67
2023-01-04T08:38:02.985Z,33.75
2023-01-04T08:41:16.628Z,32.53
2023-01-04T08:44:08.729Z,29.60
2023-01-04T08:46:54.984Z,28.08
2023-01-04T08:49:41.952Z,29.33
2023-01-04T08:52:29.130Z,30.00
2023-01-04T08:55:21.530Z,29.02
2023-01-04T08:58:09.828Z,28.13
2023-01-04T09:01:07.294Z,27.45
2023-01-04T09:03:56.231Z,26.75
2023-01-04T09:06:45.554Z,27.50
2023-01-04T09:09:31.875Z,32.10
2023-01-04T09:12:17.523Z,29.67
2023-01-04T09:15:03.468Z,29.33
2023-01-04T09:18:20.323Z,25.55
2023-01-04T09:20:56.338Z,23.85
2023-01-04T09:23:43.527Z,20.67
2023-01-04T09:26:29.489Z,22.65
2023-01-04T09:29:15.738Z,21.65
2023-01-04T09:32:03.075Z,21.15
2023-01-04T09:34:48.980Z,26.15
2023-01-04T09:37:34.780Z,24.02
2023-01-04T09:40:29.476Z,26.67
2023-01-04T09:43:21.210Z,33.30
2023-01-04T09:46:11.006Z,46.58
2023-01-04T09:49:09.786Z,50.42
2023-01-04T09:52:04.021Z,43.45
2023-01-04T09:55:02.742Z,50.30
2023-01-04T09:58:32.929Z,56.80
2023-01-04T10:01:23.473Z,53.50
2023-01-04T10:04:21.007Z,51.75
2023-01-04T10:07:12.690Z,52.05
2023-01-04T10:09:59.044Z,51.40
2023-01-04T10:13:04.158Z,46.05
2023-01-04T10:15:59.983Z,53.13
2023-01-04T10:19:23.855Z,50.05
2023-01-04T10:22:18.629Z,51.92
2023-01-04T10:25:07.373Z,36.03
2023-01-04T10:28:25.079Z,36.78
2023-01-04T10:31:41.041Z,37.47
2023-01-04T10:34:32.577Z,36.83
2023-01-04T10:37:24.961Z,35.70
2023-01-04T10:40:13.956Z,33.72
2023-01-04T10:43:04.024Z,32.90
2023-01-04T10:46:01.805Z,28.60
2023-01-04T10:48:51.570Z,27.52
2023-01-04T10:51:56.902Z,27.67
2023-01-04T10:54:52.150Z,29.58
2023-01-04T10:58:05.123Z,30.35
2023-01-04T11:00:55.836Z,28.85
2023-01-04T11:03:47.126Z,29.65
2023-01-04T11:06:56.150Z,27.88
2023-01-04T11:09:52.373Z,27.40
2023-01-04T11:12:38.453Z,25.13
2023-01-04T11:15:24.498Z,27.05
2023-01-04T11:18:13.998Z,26.65
2023-01-04T11:21:04.006Z,28.83
2023-01-04T11:23:49.984Z,27.83
2023-01-04T11:26:43.662Z,31.83
2023-01-04T11:29:42.948Z,29.45
2023-01-04T11:33:00.901Z,28.80
2023-01-04T11:35:52.451Z,29.95
2023-01-04T11:38:55.324Z,32.45
2023-01-04T11:42:00.582Z,33.45
2023-01-04T11:45:02.031Z,38.83
2023-01-04T11:47:59.243Z,29.50
2023-01-04T11:50:46.131Z,31.05
2023-01-04T11:53:35.022Z,24.17
2023-01-04T11:56:22.960Z,28.02
2023-01-04T11:59:08.759Z,26.30
2023-01-04T12:02:50.620Z,26.30
2023-01-04T12:05:32.754Z,28.25
2023-01-04T12:08:37.429Z,30.45
2023-01-04T12:11:30.202Z,29.38
2023-01-04T12:14:32.535Z,28.73
2023-01-04T12:17:25.258Z,34.42
2023-01-04T12:20:24.078Z,32.85
2023-01-04T12:23:12.356Z,31.05
2023-01-04T12:25:58.473Z,31.58
2023-01-04T12:28:47.311Z,33.75
2023-01-04T12:31:33.959Z,33.75
2023-01-04T12:34:23.286Z,36.28
2023-01-04T12:37:10.849Z,33.90
2023-01-04T12:39:56.567Z,32.13
2023-01-04T12:43:25.944Z,31.40
2023-01-04T12:46:49.015Z,37.58
2023-01-04T12:49:51.556Z,44.58
2023-01-04T12:55:58.019Z,32.35
2023-01-04T12:59:26.559Z,25.98
2023-01-04T13:02:17.663Z,52.92
2023-01-04T13:05:55.405Z,33.95
2023-01-04T13:08:33.510Z,31.05
2023-01-04T13:11:34.292Z,33.00
2023-01-04T13:14:43.613Z,29.17
2023-01-04T13:17:30.997Z,31.67
2023-01-04T13:20:22.778Z,29.95
2023-01-04T13:23:10.312Z,29.02
2023-01-04T13:25:56.228Z,30.77
2023-01-04T13:28:43.203Z,28.67
2023-01-04T13:31:29.040Z,27.88
2023-01-04T13:34:40.625Z,78.85
2023-01-04T13:37:32.802Z,28.25
2023-01-04T13:40:28.556Z,27.38
2023-01-04T13:43:42.467Z,28.05
2023-01-04T13:46:28.330Z,25.75
2023-01-04T13:49:16.267Z,25.23
2023-01-04T13:52:46.608Z,27.50
2023-01-04T13:55:30.751Z,28.90
2023-01-04T13:58:19.836Z,27.92
2023-01-04T14:01:11.826Z,25.92
2023-01-04T14:04:02.989Z,25.92
2023-01-04T14:06:50.478Z,27.23
2023-01-04T14:09:48.174Z,29.27
2023-01-04T14:12:35.023Z,26.10
2023-01-04T14:15:25.843Z,28.88
2023-01-04T14:18:29.680Z,28.23
2023-01-04T14:21:17.399Z,29.40
2023-01-04T14:24:03.216Z,28.48
2023-01-04T14:26:49.154Z,31.17
2023-01-04T14:29:34.884Z,36.72
2023-01-04T14:32:21.874Z,35.17
2023-01-04T14:35:13.789Z,31.90
2023-01-04T14:38:05.225Z,33.97
2023-01-04T14:40:51.431Z,30.92
2023-01-04T14:43:47.584Z,42.13
2023-01-04T14:46:33.230Z,46.55
2023-01-04T14:49:20.164Z,36.67
2023-01-04T14:52:12.408Z,31.77
2023-01-04T14:54:59.327Z,36.63
2023-01-04T14:57:45.833Z,33.15
2023-01-04T15:00:31.583Z,40.65
2023-01-04T15:03:17.373Z,42.80
2023-01-04T15:06:04.592Z,46.35
2023-01-04T15:08:52.520Z,36.97
2023-01-04T15:11:38.319Z,42.38
2023-01-04T15:14:24.203Z,41.70
2023-01-04T15:17:10.482Z,42.20
2023-01-04T15:19:56.385Z,37.40
2023-01-04T15:22:42.476Z,42.65
2023-01-04T15:25:29.909Z,43.17
2023-01-04T15:28:16.720Z,47.00
2023-01-04T15:31:10.154Z,44.13
2023-01-04T15:36:41.630Z,52.20
2023-01-04T15:39:27.348Z,59.83
2023-01-04T15:42:31.891Z,58.92
2023-01-04T15:45:18.263Z,65.25
2023-01-04T15:48:06.183Z,70.63
2023-01-04T15:50:52.145Z,76.75
2023-01-04T15:53:37.761Z,60.53
2023-01-04T15:56:23.626Z,49.33
2023-01-04T15:59:09.404Z,47.22
2023-01-04T16:01:55.525Z,47.75
2023-01-04T16:04:41.807Z,58.85
2023-01-04T16:07:32.590Z,54.97
2023-01-04T16:10:21.352Z,52.03
2023-01-04T16:13:07.724Z,56.22
2023-01-04T16:15:53.519Z,56.38
2023-01-04T16:18:39.451Z,60.42
2023-01-04T16:21:29.534Z,56.03
2023-01-04T16:24:37.375Z,47.40
2023-01-04T16:27:21.265Z,41.35
2023-01-04T16:30:13.660Z,41.63
2023-01-04T16:33:00.974Z,39.67
2023-01-04T16:35:50.205Z,41.38
2023-01-04T16:38:42.150Z,41.17
2023-01-04T16:41:27.894Z,44.10
2023-01-04T16:44:13.813Z,48.45
2023-01-04T16:47:00.067Z,51.28
2023-01-04T16:49:50.934Z,58.40
2023-01-04T16:52:37.251Z,67.50
2023-01-04T16:55:24.175Z,66.75
2023-01-04T16:58:10.475Z,55.90
2023-01-04T17:00:56.461Z,58.95
2023-01-04T17:03:43.786Z,64.43
2023-01-04T17:06:32.221Z,68.95
2023-01-04T17:09:20.069Z,71.07
2023-01-04T17:18:22.647Z,81.75
2023-01-04T17:21:33.095Z,71.10
2023-01-04T17:24:19.285Z,62.15
2023-01-04T17:27:05.496Z,52.97
2023-01-04T17:29:51.426Z,48.70
2023-01-04T17:32:37.357Z,39.63
2023-01-04T17:35:24.333Z,40.78
2023-01-04T17:38:10.246Z,38.92
2023-01-04T17:40:56.034Z,37.13
2023-01-04T17:43:43.339Z,36.63
2023-01-04T17:46:32.129Z,37.17
2023-01-04T17:49:22.537Z,39.22
2023-01-04T17:52:10.324Z,43.65
2023-01-04T17:54:58.193Z,40.15
2023-01-04T17:57:44.176Z,38.72
2023-01-04T18:00:30.026Z,38.63
2023-01-04T18:03:15.905Z,38.72
2023-01-04T18:06:24.436Z,39.22
2023-01-04T18:09:09.031Z,44.53
2023-01-04T18:11:55.045Z,49.78
2023-01-04T18:14:40.777Z,46.75
2023-01-04T18:17:26.603Z,46.17
2023-01-04T18:20:19.641Z,47.97
2023-01-04T18:23:15.047Z,45.75
2023-01-04T18:26:11.155Z,42.42
2023-01-04T18:28:58.570Z,42.08
2023-01-04T18:31:44.349Z,42.90
2023-01-04T18:34:30.125Z,47.13
2023-01-04T18:37:16.729Z,48.13
2023-01-04T18:40:03.463Z,52.85
2023-01-04T18:42:49.623Z,48.75
2023-01-04T18:45:35.371Z,48.08
2023-01-04T18:48:21.234Z,46.58
2023-01-04T18:51:10.585Z,47.20
2023-01-04T18:53:56.303Z,45.58
2023-01-04T18:56:42.127Z,43.35
2023-01-04T18:59:29.215Z,41.25
2023-01-04T19:02:17.304Z,42.38
2023-01-04T19:05:03.680Z,40.97
2023-01-04T19:07:50.593Z,41.78
2023-01-04T19:10:36.997Z,50.83
2023-01-04T19:13:22.738Z,53.35
2023-01-04T19:16:12.504Z,47.28
2023-01-04T19:18:59.945Z,46.95
2023-01-04T19:21:46.410Z,44.95
2023-01-04T19:24:32.394Z,44.13
2023-01-04T19:27:19.751Z,43.42
2023-01-04T19:30:06.142Z,50.28
2023-01-04T19:32:52.328Z,46.75
2023-01-04T19:35:43.427Z,47.28
2023-01-04T19:38:29.336Z,46.90
2023-01-04T19:41:19.861Z,52.72
2023-01-04T19:44:08.234Z,53.15
2023-01-04T19:46:54.329Z,59.25
2023-01-04T19:49:39.984Z,61.92
2023-01-04T19:52:26.075Z,66.22
2023-01-04T19:55:12.384Z,63.20
2023-01-04T19:57:58.033Z,65.28
2023-01-04T20:00:52.524Z,75.65
2023-01-04T20:03:43.585Z,85.85
2023-01-04T20:06:29.545Z,94.50
2023-01-04T20:09:15.725Z,124.15
2023-01-04T20:12:02.391Z,137.75
2023-01-04T20:14:48.256Z,143.43
2023-01-04T20:17:40.707Z,159.18
2023-01-04T20:20:27.020Z,163.83
2023-01-04T20:23:14.390Z,163.57
2023-01-04T20:26:24.017Z,167.88
2023-01-04T20:29:10.159Z,160.15
2023-01-04T20:31:57.180Z,151.63
2023-01-04T20:34:43.286Z,138.98
2023-01-04T20:37:29.298Z,134.48
2023-01-04T20:40:15.127Z,129.07
2023-01-04T20:43:21.355Z,137.27
2023-01-04T20:46:18.266Z,132.73
2023-01-04T20:49:04.410Z,137.82
2023-01-04T20:51:50.632Z,135.98
2023-01-04T20:54:36.680Z,139.02
2023-01-04T20:57:23.173Z,140.55
2023-01-04T21:00:09.835Z,138.48
2023-01-04T21:02:56.256Z,147.35
2023-01-04T21:05:45.567Z,148.30
2023-01-04T21:08:31.985Z,146.57
2023-01-04T21:11:19.033Z,149.52
2023-01-04T21:14:05.988Z,148.48
2023-01-04T21:16:52.211Z,145.68
2023-01-04T21:19:38.908Z,153.13
2023-01-04T21:22:26.005Z,154.60
2023-01-04T21:25:12.215Z,154.60
2023-01-04T21:28:00.945Z,151.77
2023-01-04T21:30:47.577Z,154.93
2023-01-04T21:33:34.692Z,159.07
2023-01-04T21:36:23.014Z,143.98
2023-01-04T21:39:09.137Z,141.70
2023-01-04T21:41:55.084Z,135.30
2023-01-04T21:44:40.977Z,119.95
2023-01-04T21:47:26.927Z,120.15
2023-01-04T21:50:16.919Z,116.50
2023-01-04T21:53:03.381Z,97.80
2023-01-04T21:56:01.082Z,91.90
2023-01-04T21:58:47.114Z,80.22
2023-01-04T22:01:35.338Z,67.53
2023-01-04T22:04:22.121Z,62.38
2023-01-04T22:07:08.101Z,63.13
2023-01-04T22:09:57.379Z,62.42
2023-01-04T22:12:45.031Z,58.90
2023-01-04T22:15:31.115Z,57.40
2023-01-04T22:18:18.081Z,57.97
2023-01-04T22:21:06.638Z,61.45
2023-01-04T22:23:53.616Z,83.40
2023-01-04T22:26:39.847Z,111.75
2023-01-04T22:29:26.024Z,133.88
2023-01-04T22:32:12.173Z,134.57
2023-01-04T22:34:58.068Z,132.10
2023-01-04T22:37:46.414Z,125.43
2023-01-04T22:40:32.656Z,88.35
2023-01-04T22:43:18.307Z,68.50
2023-01-04T22:46:06.914Z,63.05
2023-01-04T22:48:53.132Z,62.17
2023-01-04T22:51:40.796Z,64.53
2023-01-04T22:54:26.483Z,65.43
2023-01-04T22:57:12.329Z,76.72
2023-01-04T22:59:58.086Z,108.28
2023-01-04T23:02:43.893Z,116.88
2023-01-04T23:05:30.060Z,127.85
2023-01-04T23:08:15.917Z,129.13
2023-01-04T23:11:12.569Z,127.53
2023-01-04T23:13:59.199Z,129.93
2023-01-04T23:16:45.487Z,92.38
2023-01-04T23:19:31.429Z,57.35
2023-01-04T23:22:17.186Z,49.15
2023-01-04T23:25:03.090Z,51.17
2023-01-04T23:27:48.682Z,47.83
2023-01-04T23:30:34.364Z,48.13
2023-01-04T23:33:20.154Z,46.40
2023-01-04T23:36:14.803Z,49.38
2023-01-04T23:39:02.157Z,48.05
2023-01-04T23:41:48.279Z,51.08
2023-01-04T23:44:34.456Z,47.03
2023-01-04T23:47:20.129Z,49.20
2023-01-04T23:50:06.106Z,50.42
2023-01-04T23:52:51.950Z,49.95
2023-01-04T23:55:37.623Z,51.17
2023-01-04T23:58:24.090Z,47.40
